Hoensbroek, Netherlands
Current Conditions -  °F | °C
As of 11:50 AM on Monday 20 Oct 2014 (Local Time) from ETNG Reporting Station
Broken Clouds Broken Clouds  
Wind Chill: 59°   Ceiling: 3000
Heat Index: 59°   Visibility: 6mi
Dew Point: 57°   Wind: 12mph
Humidity: 94%   Direction: 260°W
Pressure: 30.06"   Gusts: NA
Location:  50.92°N, 5.93°E
Report Text: ETNG 200950Z 26010KT 9999 SCT020 BKN030 15/14 Q1018 NOSIG
Loading
Personal Weather Stations






























Interactive Weather Map
Tropical Storm Tracking
New forecast layout! Learn more

10-Day Weather Forecast

Advertisements
Track Severe Weather on mobile